sensor_id;sensor_type;location;lat;lon;timestamp;pressure;altitude;pressure_sealevel;temperature;humidity
967;BME280;56108;48.730;9.304;2023-04-08T00:00:43;97729.59;;;7.39;100.00
967;BME280;56108;48.730;9.304;2023-04-08T00:02:54;97732.94;;;7.43;100.00
967;BME280;56108;48.730;9.304;2023-04-08T00:05:02;97732.25;;;7.39;100.00
967;BME280;56108;48.730;9.304;2023-04-08T00:07:09;97731.28;;;7.40;100.00
967;BME280;56108;48.730;9.304;2023-04-08T00:09:17;97729.84;;;7.35;100.00
967;BME280;56108;48.730;9.304;2023-04-08T00:11:25;97735.06;;;7.36;100.00
967;BME280;56108;48.730;9.304;2023-04-08T00:13:33;97726.59;;;7.29;100.00
967;BME280;56108;48.730;9.304;2023-04-08T00:15:41;97730.78;;;7.33;100.00
967;BME280;56108;48.730;9.304;2023-04-08T00:17:49;97726.69;;;7.28;100.00
967;BME280;56108;48.730;9.304;2023-04-08T00:20:01;97727.78;;;7.24;100.00
967;BME280;56108;48.730;9.304;2023-04-08T00:22:09;97727.25;;;7.17;100.00
967;BME280;56108;48.730;9.304;2023-04-08T00:24:18;97728.19;;;7.16;100.00
967;BME280;56108;48.730;9.304;2023-04-08T00:26:26;97728.97;;;7.18;100.00
967;BME280;56108;48.730;9.304;2023-04-08T00:28:34;97729.81;;;7.19;100.00
967;BME280;56108;48.730;9.304;2023-04-08T00:30:42;97716.22;;;7.09;100.00
967;BME280;56108;48.730;9.304;2023-04-08T00:32:50;97718.19;;;7.05;100.00
967;BME280;56108;48.730;9.304;2023-04-08T00:35:00;97719.75;;;6.92;100.00
967;BME280;56108;48.730;9.304;2023-04-08T00:37:09;97720.78;;;6.90;100.00
967;BME280;56108;48.730;9.304;2023-04-08T00:39:17;97717.22;;;6.91;100.00
967;BME280;56108;48.730;9.304;2023-04-08T00:41:24;97714.88;;;6.85;100.00
967;BME280;56108;48.730;9.304;2023-04-08T00:43:33;97718.16;;;6.90;100.00
967;BME280;56108;48.730;9.304;2023-04-08T00:45:41;97714.81;;;6.86;100.00
967;BME280;56108;48.730;9.304;2023-04-08T00:47:49;97719.84;;;6.91;100.00
967;BME280;56108;48.730;9.304;2023-04-08T00:49:57;97715.31;;;6.93;100.00
967;BME280;56108;48.730;9.304;2023-04-08T00:52:08;97725.28;;;6.88;100.00
967;BME280;56108;48.730;9.304;2023-04-08T00:54:16;97727.69;;;6.92;100.00
967;BME280;56108;48.730;9.304;2023-04-08T00:56:25;97727.94;;;7.05;100.00
967;BME280;56108;48.730;9.304;2023-04-08T00:58:33;97728.69;;;7.07;100.00
967;BME280;56108;48.730;9.304;2023-04-08T01:00:53;97733.66;;;7.13;100.00
967;BME280;56108;48.730;9.304;2023-04-08T01:03:07;97727.13;;;7.03;100.00
967;BME280;56108;48.730;9.304;2023-04-08T01:05:26;97736.63;;;7.07;100.00
967;BME280;56108;48.730;9.304;2023-04-08T01:07:44;97736.63;;;7.07;100.00
967;BME280;56108;48.730;9.304;2023-04-08T01:09:55;97726.44;;;6.99;100.00
967;BME280;56108;48.730;9.304;2023-04-08T01:12:07;97732.59;;;7.00;100.00
967;BME280;56108;48.730;9.304;2023-04-08T01:14:18;97734.31;;;7.01;100.00
967;BME280;56108;48.730;9.304;2023-04-08T01:16:28;97740.88;;;7.10;100.00
967;BME280;56108;48.730;9.304;2023-04-08T01:18:37;97743.94;;;7.02;100.00
967;BME280;56108;48.730;9.304;2023-04-08T01:20:46;97738.66;;;7.02;100.00
967;BME280;56108;48.730;9.304;2023-04-08T01:23:04;97736.16;;;6.99;100.00
967;BME280;56108;48.730;9.304;2023-04-08T01:25:18;97733.69;;;6.96;100.00
967;BME280;56108;48.730;9.304;2023-04-08T01:27:29;97734.69;;;6.93;100.00
967;BME280;56108;48.730;9.304;2023-04-08T01:29:38;97733.69;;;6.96;100.00
967;BME280;56108;48.730;9.304;2023-04-08T01:31:47;97730.88;;;6.99;100.00
967;BME280;56108;48.730;9.304;2023-04-08T01:33:56;97734.47;;;6.98;100.00
967;BME280;56108;48.730;9.304;2023-04-08T01:36:06;97723.44;;;6.90;100.00
967;BME280;56108;48.730;9.304;2023-04-08T01:38:17;97726.22;;;6.87;100.00
967;BME280;56108;48.730;9.304;2023-04-08T01:40:26;97726.53;;;6.98;100.00
967;BME280;56108;48.730;9.304;2023-04-08T01:42:37;97735.31;;;6.98;100.00
967;BME280;56108;48.730;9.304;2023-04-08T01:44:49;97729.59;;;6.90;100.00
967;BME280;56108;48.730;9.304;2023-04-08T01:46:59;97729.81;;;6.86;100.00
967;BME280;56108;48.730;9.304;2023-04-08T01:49:08;97726.16;;;6.88;100.00
967;BME280;56108;48.730;9.304;2023-04-08T01:51:17;97722.50;;;6.91;100.00
967;BME280;56108;48.730;9.304;2023-04-08T01:53:25;97721.47;;;6.93;100.00
967;BME280;56108;48.730;9.304;2023-04-08T01:55:33;97719.06;;;6.89;100.00
967;BME280;56108;48.730;9.304;2023-04-08T01:57:51;97729.13;;;6.82;100.00
967;BME280;56108;48.730;9.304;2023-04-08T02:00:00;97722.06;;;6.98;100.00
967;BME280;56108;48.730;9.304;2023-04-08T02:02:24;97733.38;;;7.02;100.00
967;BME280;56108;48.730;9.304;2023-04-08T02:04:35;97729.97;;;7.00;100.00
967;BME280;56108;48.730;9.304;2023-04-08T02:06:43;97732.75;;;6.97;100.00
967;BME280;56108;48.730;9.304;2023-04-08T02:08:53;97731.66;;;7.01;100.00
967;BME280;56108;48.730;9.304;2023-04-08T02:11:01;97741.31;;;7.02;100.00
967;BME280;56108;48.730;9.304;2023-04-08T02:13:12;97735.06;;;7.03;100.00
967;BME280;56108;48.730;9.304;2023-04-08T02:15:20;97738.66;;;7.02;100.00
967;BME280;56108;48.730;9.304;2023-04-08T02:17:35;97737.28;;;6.95;100.00
967;BME280;56108;48.730;9.304;2023-04-08T02:19:50;97734.78;;;6.92;100.00
967;BME280;56108;48.730;9.304;2023-04-08T02:22:05;97737.53;;;6.90;100.00
967;BME280;56108;48.730;9.304;2023-04-08T02:24:17;97731.19;;;6.93;100.00
967;BME280;56108;48.730;9.304;2023-04-08T02:26:26;97735.88;;;6.88;100.00
967;BME280;56108;48.730;9.304;2023-04-08T02:28:37;97746.22;;;6.92;100.00
967;BME280;56108;48.730;9.304;2023-04-08T02:30:48;97747.25;;;6.90;100.00
967;BME280;56108;48.730;9.304;2023-04-08T02:32:57;97743.44;;;6.95;100.00
967;BME280;56108;48.730;9.304;2023-04-08T02:35:06;97740.34;;;7.03;100.00
967;BME280;56108;48.730;9.304;2023-04-08T02:37:15;97754.00;;;6.95;100.00
967;BME280;56108;48.730;9.304;2023-04-08T02:39:29;97735.50;;;6.95;100.00
967;BME280;56108;48.730;9.304;2023-04-08T02:41:41;97748.94;;;6.91;100.00
967;BME280;56108;48.730;9.304;2023-04-08T02:43:51;97747.47;;;6.85;100.00
967;BME280;56108;48.730;9.304;2023-04-08T02:46:00;97752.34;;;6.93;100.00
967;BME280;56108;48.730;9.304;2023-04-08T02:48:09;97751.75;;;6.88;100.00
967;BME280;56108;48.730;9.304;2023-04-08T02:50:16;97757.66;;;6.93;100.00
967;BME280;56108;48.730;9.304;2023-04-08T02:52:24;97746.13;;;6.94;100.00
967;BME280;56108;48.730;9.304;2023-04-08T02:54:32;97751.41;;;6.94;100.00
967;BME280;56108;48.730;9.304;2023-04-08T02:56:40;97751.75;;;6.88;100.00
967;BME280;56108;48.730;9.304;2023-04-08T02:58:51;97752.50;;;7.07;100.00
967;BME280;56108;48.730;9.304;2023-04-08T03:00:59;97764.59;;;6.95;100.00
967;BME280;56108;48.730;9.304;2023-04-08T03:03:07;97758.75;;;6.89;100.00
967;BME280;56108;48.730;9.304;2023-04-08T03:05:15;97765.28;;;6.82;100.00
967;BME280;56108;48.730;9.304;2023-04-08T03:07:23;97768.03;;;6.80;100.00
967;BME280;56108;48.730;9.304;2023-04-08T03:09:31;97762.88;;;6.77;100.00
967;BME280;56108;48.730;9.304;2023-04-08T03:11:39;97761.94;;;6.78;100.00
967;BME280;56108;48.730;9.304;2023-04-08T03:13:51;97767.09;;;6.81;100.00
967;BME280;56108;48.730;9.304;2023-04-08T03:15:59;97767.28;;;6.94;100.00
967;BME280;56108;48.730;9.304;2023-04-08T03:18:07;97766.69;;;6.89;100.00
967;BME280;56108;48.730;9.304;2023-04-08T03:20:15;97763.97;;;6.73;100.00
967;BME280;56108;48.730;9.304;2023-04-08T03:22:23;97753.47;;;6.71;100.00
967;BME280;56108;48.730;9.304;2023-04-08T03:24:31;97760.31;;;6.75;100.00
967;BME280;56108;48.730;9.304;2023-04-08T03:26:39;97761.78;;;6.81;100.00
967;BME280;56108;48.730;9.304;2023-04-08T03:28:47;97765.22;;;6.83;100.00
967;BME280;56108;48.730;9.304;2023-04-08T03:30:58;97767.00;;;6.83;100.00
967;BME280;56108;48.730;9.304;2023-04-08T03:33:06;97772.06;;;6.87;100.00
967;BME280;56108;48.730;9.304;2023-04-08T03:35:14;97763.97;;;6.73;100.00
967;BME280;56108;48.730;9.304;2023-04-08T03:37:22;97763.66;;;6.62;100.00
967;BME280;56108;48.730;9.304;2023-04-08T03:39:30;97766.31;;;6.62;100.00
967;BME280;56108;48.730;9.304;2023-04-08T03:41:38;97763.75;;;6.60;100.00
967;BME280;56108;48.730;9.304;2023-04-08T03:43:46;97761.25;;;6.57;100.00
967;BME280;56108;48.730;9.304;2023-04-08T03:45:54;97765.91;;;6.52;100.00
967;BME280;56108;48.730;9.304;2023-04-08T03:48:05;97755.19;;;6.55;100.00
967;BME280;56108;48.730;9.304;2023-04-08T03:50:13;97762.38;;;6.53;100.00
967;BME280;56108;48.730;9.304;2023-04-08T03:52:21;97754.44;;;6.53;100.00
967;BME280;56108;48.730;9.304;2023-04-08T03:54:29;97751.78;;;6.53;100.00
967;BME280;56108;48.730;9.304;2023-04-08T03:56:37;97751.41;;;6.43;100.00
967;BME280;56108;48.730;9.304;2023-04-08T03:58:45;97753.63;;;6.51;100.00
967;BME280;56108;48.730;9.304;2023-04-08T04:00:53;97747.94;;;6.41;100.00
967;BME280;56108;48.730;9.304;2023-04-08T04:03:01;97742.84;;;6.38;100.00
967;BME280;56108;48.730;9.304;2023-04-08T04:05:11;97743.69;;;6.39;100.00
967;BME280;56108;48.730;9.304;2023-04-08T04:07:19;97746.66;;;6.50;100.00
967;BME280;56108;48.730;9.304;2023-04-08T04:09:27;97746.16;;;6.42;100.00
967;BME280;56108;48.730;9.304;2023-04-08T04:11:35;97742.03;;;6.36;100.00
967;BME280;56108;48.730;9.304;2023-04-08T04:13:43;97742.44;;;6.46;100.00
967;BME280;56108;48.730;9.304;2023-04-08T04:15:51;97736.84;;;6.52;100.00
967;BME280;56108;48.730;9.304;2023-04-08T04:17:59;97745.25;;;6.43;100.00
967;BME280;56108;48.730;9.304;2023-04-08T04:20:11;97745.09;;;6.46;100.00
967;BME280;56108;48.730;9.304;2023-04-08T04:22:19;97744.47;;;6.58;100.00
967;BME280;56108;48.730;9.304;2023-04-08T04:24:27;97748.81;;;6.42;100.00
967;BME280;56108;48.730;9.304;2023-04-08T04:26:35;97749.44;;;6.30;100.00
967;BME280;56108;48.730;9.304;2023-04-08T04:28:42;97750.50;;;6.25;100.00
967;BME280;56108;48.730;9.304;2023-04-08T04:30:50;97753.88;;;6.29;100.00
967;BME280;56108;48.730;9.304;2023-04-08T04:33:00;97743.69;;;6.21;100.00
967;BME280;56108;48.730;9.304;2023-04-08T04:35:11;97741.03;;;6.21;100.00
967;BME280;56108;48.730;9.304;2023-04-08T04:37:19;97746.69;;;6.31;100.00
967;BME280;56108;48.730;9.304;2023-04-08T04:39:27;97744.63;;;6.38;100.00
967;BME280;56108;48.730;9.304;2023-04-08T04:41:35;97745.94;;;6.29;100.00
967;BME280;56108;48.730;9.304;2023-04-08T04:43:44;97753.31;;;6.57;100.00
967;BME280;56108;48.730;9.304;2023-04-08T04:45:52;97751.78;;;6.70;100.00
967;BME280;56108;48.730;9.304;2023-04-08T04:48:00;97762.66;;;6.64;100.00
967;BME280;56108;48.730;9.304;2023-04-08T04:50:11;97766.19;;;6.47;100.00
967;BME280;56108;48.730;9.304;2023-04-08T04:52:19;97762.28;;;6.54;100.00
967;BME280;56108;48.730;9.304;2023-04-08T04:54:27;97765.25;;;6.48;100.00
967;BME280;56108;48.730;9.304;2023-04-08T04:56:41;97772.94;;;6.53;100.00
967;BME280;56108;48.730;9.304;2023-04-08T04:58:52;97778.59;;;6.45;100.00
967;BME280;56108;48.730;9.304;2023-04-08T05:01:00;97776.88;;;6.44;100.00
967;BME280;56108;48.730;9.304;2023-04-08T05:03:07;97776.25;;;6.39;100.00
967;BME280;56108;48.730;9.304;2023-04-08T05:05:18;97776.44;;;6.53;100.00
967;BME280;56108;48.730;9.304;2023-04-08T05:07:26;97783.13;;;6.61;100.00
967;BME280;56108;48.730;9.304;2023-04-08T05:09:34;97789.34;;;6.60;100.00
967;BME280;56108;48.730;9.304;2023-04-08T05:11:42;97792.22;;;6.55;100.00
967;BME280;56108;48.730;9.304;2023-04-08T05:13:50;97792.06;;;6.58;100.00
967;BME280;56108;48.730;9.304;2023-04-08T05:15:58;97793.06;;;6.56;100.00
967;BME280;56108;48.730;9.304;2023-04-08T05:18:06;97788.03;;;6.68;100.00
967;BME280;56108;48.730;9.304;2023-04-08T05:20:14;97787.56;;;6.60;100.00
967;BME280;56108;48.730;9.304;2023-04-08T05:22:24;97795.09;;;6.68;100.00
967;BME280;56108;48.730;9.304;2023-04-08T05:24:32;97792.38;;;6.69;100.00
967;BME280;56108;48.730;9.304;2023-04-08T05:26:40;97794.31;;;6.66;100.00
967;BME280;56108;48.730;9.304;2023-04-08T05:28:49;97791.59;;;6.85;100.00
967;BME280;56108;48.730;9.304;2023-04-08T05:30:57;97807.00;;;6.76;100.00
967;BME280;56108;48.730;9.304;2023-04-08T05:33:05;97798.44;;;6.71;100.00
967;BME280;56108;48.730;9.304;2023-04-08T05:35:13;97799.06;;;6.76;100.00
967;BME280;56108;48.730;9.304;2023-04-08T05:37:21;97804.66;;;6.88;100.00
967;BME280;56108;48.730;9.304;2023-04-08T05:39:31;97815.16;;;7.06;100.00
967;BME280;56108;48.730;9.304;2023-04-08T05:41:39;97820.81;;;6.99;100.00
967;BME280;56108;48.730;9.304;2023-04-08T05:43:47;97817.56;;;7.11;100.00
967;BME280;56108;48.730;9.304;2023-04-08T05:45:55;97825.66;;;7.08;100.00
967;BME280;56108;48.730;9.304;2023-04-08T05:48:03;97825.13;;;7.01;100.00
967;BME280;56108;48.730;9.304;2023-04-08T05:50:11;97823.09;;;7.06;100.00
967;BME280;56108;48.730;9.304;2023-04-08T05:52:19;97821.31;;;7.07;100.00
967;BME280;56108;48.730;9.304;2023-04-08T05:54:27;97827.59;;;7.04;100.00
967;BME280;56108;48.730;9.304;2023-04-08T05:56:37;97831.88;;;7.07;100.00
967;BME280;56108;48.730;9.304;2023-04-08T05:58:45;97831.59;;;6.96;100.00
967;BME280;56108;48.730;9.304;2023-04-08T06:00:53;97839.34;;;6.99;100.00
967;BME280;56108;48.730;9.304;2023-04-08T06:03:01;97842.63;;;7.04;100.00
967;BME280;56108;48.730;9.304;2023-04-08T06:05:10;97844.63;;;6.99;100.00
967;BME280;56108;48.730;9.304;2023-04-08T06:07:18;97842.78;;;7.01;100.00
967;BME280;56108;48.730;9.304;2023-04-08T06:09:25;97843.47;;;6.87;100.00
967;BME280;56108;48.730;9.304;2023-04-08T06:11:33;97843.09;;;6.77;100.00
967;BME280;56108;48.730;9.304;2023-04-08T06:13:44;97840.31;;;6.80;100.00
967;BME280;56108;48.730;9.304;2023-04-08T06:15:51;97848.16;;;6.82;100.00
967;BME280;56108;48.730;9.304;2023-04-08T06:17:59;97847.38;;;6.97;100.00
967;BME280;56108;48.730;9.304;2023-04-08T06:20:08;97859.13;;;6.74;100.00
967;BME280;56108;48.730;9.304;2023-04-08T06:22:18;97856.63;;;6.71;100.00
967;BME280;56108;48.730;9.304;2023-04-08T06:24:27;97847.44;;;6.78;100.00
967;BME280;56108;48.730;9.304;2023-04-08T06:26:35;97853.66;;;6.77;100.00
967;BME280;56108;48.730;9.304;2023-04-08T06:28:46;97856.25;;;6.79;100.00
967;BME280;56108;48.730;9.304;2023-04-08T06:30:54;97861.69;;;6.93;100.00
967;BME280;56108;48.730;9.304;2023-04-08T06:33:02;97855.84;;;6.87;100.00
967;BME280;56108;48.730;9.304;2023-04-08T06:35:09;97865.59;;;7.03;100.00
967;BME280;56108;48.730;9.304;2023-04-08T06:37:17;97863.63;;;7.07;100.00
967;BME280;56108;48.730;9.304;2023-04-08T06:39:25;97876.41;;;6.99;100.00
967;BME280;56108;48.730;9.304;2023-04-08T06:41:33;97879.38;;;7.10;100.00
967;BME280;56108;48.730;9.304;2023-04-08T06:43:57;97880.69;;;7.36;100.00
967;BME280;56108;48.730;9.304;2023-04-08T06:46:05;97877.94;;;7.38;100.00
967;BME280;56108;48.730;9.304;2023-04-08T06:48:13;97886.28;;;7.47;100.00
967;BME280;56108;48.730;9.304;2023-04-08T06:50:21;97892.66;;;7.43;100.00
967;BME280;56108;48.730;9.304;2023-04-08T06:52:29;97891.00;;;7.41;100.00
967;BME280;56108;48.730;9.304;2023-04-08T06:54:37;97888.53;;;7.38;100.00
967;BME280;56108;48.730;9.304;2023-04-08T06:56:45;97897.19;;;7.24;100.00
967;BME280;56108;48.730;9.304;2023-04-08T06:58:53;97898.22;;;7.21;100.00
967;BME280;56108;48.730;9.304;2023-04-08T07:01:03;97898.75;;;7.28;100.00
967;BME280;56108;48.730;9.304;2023-04-08T07:03:11;97898.81;;;7.26;100.00
967;BME280;56108;48.730;9.304;2023-04-08T07:05:19;97904.09;;;7.44;100.00
967;BME280;56108;48.730;9.304;2023-04-08T07:07:27;97902.31;;;7.44;100.00
967;BME280;56108;48.730;9.304;2023-04-08T07:09:36;97903.63;;;7.36;100.00
967;BME280;56108;48.730;9.304;2023-04-08T07:11:45;97908.69;;;7.57;100.00
967;BME280;56108;48.730;9.304;2023-04-08T07:13:53;97911.53;;;7.70;100.00
967;BME280;56108;48.730;9.304;2023-04-08T07:16:04;97909.88;;;7.85;100.00
967;BME280;56108;48.730;9.304;2023-04-08T07:18:12;97914.78;;;7.75;100.00
967;BME280;56108;48.730;9.304;2023-04-08T07:20:20;97918.81;;;7.49;100.00
967;BME280;56108;48.730;9.304;2023-04-08T07:22:28;97919.44;;;7.54;100.00
967;BME280;56108;48.730;9.304;2023-04-08T07:24:36;97918.38;;;7.74;100.00
967;BME280;56108;48.730;9.304;2023-04-08T07:26:46;97926.19;;;7.60;100.00
967;BME280;56108;48.730;9.304;2023-04-08T07:28:55;97925.97;;;7.65;100.00
967;BME280;56108;48.730;9.304;2023-04-08T07:31:13;97931.44;;;7.95;100.00
967;BME280;56108;48.730;9.304;2023-04-08T07:33:21;97926.69;;;8.33;100.00
967;BME280;56108;48.730;9.304;2023-04-08T07:35:30;97932.97;;;8.63;100.00
967;BME280;56108;48.730;9.304;2023-04-08T07:37:38;97930.56;;;8.91;100.00
967;BME280;56108;48.730;9.304;2023-04-08T07:39:46;97938.91;;;9.14;100.00
967;BME280;56108;48.730;9.304;2023-04-08T07:41:54;97941.59;;;9.29;100.00
967;BME280;56108;48.730;9.304;2023-04-08T07:44:02;97943.16;;;9.77;100.00
967;BME280;56108;48.730;9.304;2023-04-08T07:46:13;97952.22;;;9.59;100.00
967;BME280;56108;48.730;9.304;2023-04-08T07:48:21;97944.28;;;9.73;100.00
967;BME280;56108;48.730;9.304;2023-04-08T07:50:29;97948.94;;;9.84;100.00
967;BME280;56108;48.730;9.304;2023-04-08T07:52:37;97951.34;;;10.03;100.00
967;BME280;56108;48.730;9.304;2023-04-08T07:54:45;97954.53;;;10.22;100.00
967;BME280;56108;48.730;9.304;2023-04-08T07:56:53;97953.16;;;10.45;99.11
967;BME280;56108;48.730;9.304;2023-04-08T07:59:01;97950.56;;;10.58;98.58
967;BME280;56108;48.730;9.304;2023-04-08T08:01:19;97943.81;;;10.52;94.50
967;BME280;56108;48.730;9.304;2023-04-08T08:03:27;97943.34;;;10.45;95.29
967;BME280;56108;48.730;9.304;2023-04-08T08:05:37;97956.84;;;10.14;95.93
967;BME280;56108;48.730;9.304;2023-04-08T08:07:45;97949.69;;;10.57;95.43
967;BME280;56108;48.730;9.304;2023-04-08T08:09:54;97959.94;;;10.78;92.33
967;BME280;56108;48.730;9.304;2023-04-08T08:12:02;97948.41;;;10.91;91.92
967;BME280;56108;48.730;9.304;2023-04-08T08:14:10;97949.41;;;10.62;91.98
967;BME280;56108;48.730;9.304;2023-04-08T08:16:20;97954.91;;;10.73;92.68
967;BME280;56108;48.730;9.304;2023-04-08T08:18:31;97961.59;;;10.52;91.37
967;BME280;56108;48.730;9.304;2023-04-08T08:20:40;97957.94;;;10.81;92.02
967;BME280;56108;48.730;9.304;2023-04-08T08:22:48;97959.97;;;10.49;93.36
967;BME280;56108;48.730;9.304;2023-04-08T08:25:01;97964.53;;;10.18;94.21
967;BME280;56108;48.730;9.304;2023-04-08T08:27:09;97965.88;;;10.26;94.04
967;BME280;56108;48.730;9.304;2023-04-08T08:29:17;97966.91;;;10.09;93.83
967;BME280;56108;48.730;9.304;2023-04-08T08:31:28;97967.94;;;10.20;96.27
967;BME280;56108;48.730;9.304;2023-04-08T08:33:35;97978.19;;;10.12;95.47
967;BME280;56108;48.730;9.304;2023-04-08T08:35:43;97965.28;;;10.49;94.33
967;BME280;56108;48.730;9.304;2023-04-08T08:37:51;97962.72;;;10.48;93.20
967;BME280;56108;48.730;9.304;2023-04-08T08:39:59;97961.50;;;10.94;92.49
967;BME280;56108;48.730;9.304;2023-04-08T08:42:17;97968.03;;;11.03;88.58
967;BME280;56108;48.730;9.304;2023-04-08T08:44:26;97974.38;;;11.15;87.98
967;BME280;56108;48.730;9.304;2023-04-08T08:46:42;97975.25;;;11.68;86.30
967;BME280;56108;48.730;9.304;2023-04-08T08:48:50;97976.81;;;12.10;84.13
967;BME280;56108;48.730;9.304;2023-04-08T08:50:58;97983.97;;;12.10;80.59
967;BME280;56108;48.730;9.304;2023-04-08T08:53:06;97984.59;;;12.39;78.28
967;BME280;56108;48.730;9.304;2023-04-08T08:55:15;97984.81;;;12.10;78.39
967;BME280;56108;48.730;9.304;2023-04-08T08:57:44;97990.16;;;12.23;78.80
967;BME280;56108;48.730;9.304;2023-04-08T08:59:54;97991.31;;;12.32;78.38
967;BME280;56108;48.730;9.304;2023-04-08T09:02:22;98001.66;;;12.62;72.64
967;BME280;56108;48.730;9.304;2023-04-08T09:04:31;97998.84;;;12.76;72.15
967;BME280;56108;48.730;9.304;2023-04-08T09:06:39;98002.97;;;12.43;72.78
967;BME280;56108;48.730;9.304;2023-04-08T09:08:47;98001.22;;;12.42;72.45
967;BME280;56108;48.730;9.304;2023-04-08T09:10:56;98001.78;;;12.97;72.65
967;BME280;56108;48.730;9.304;2023-04-08T09:13:17;98003.47;;;13.11;70.55
967;BME280;56108;48.730;9.304;2023-04-08T09:15:25;98007.06;;;12.86;69.64
967;BME280;56108;48.730;9.304;2023-04-08T09:17:37;98005.91;;;13.26;70.27
967;BME280;56108;48.730;9.304;2023-04-08T09:20:03;98011.16;;;12.66;71.14
967;BME280;56108;48.730;9.304;2023-04-08T09:22:13;98014.28;;;12.96;68.37
967;BME280;56108;48.730;9.304;2023-04-08T09:24:30;98022.31;;;12.84;65.64
967;BME280;56108;48.730;9.304;2023-04-08T09:26:38;98014.75;;;13.51;66.46
967;BME280;56108;48.730;9.304;2023-04-08T09:29:00;98032.13;;;14.04;62.74
967;BME280;56108;48.730;9.304;2023-04-08T09:31:29;98028.63;;;14.38;61.65
967;BME280;56108;48.730;9.304;2023-04-08T09:33:40;98036.06;;;14.45;60.20
967;BME280;56108;48.730;9.304;2023-04-08T09:35:48;98041.75;;;14.29;58.21
967;BME280;56108;48.730;9.304;2023-04-08T09:37:56;98038.94;;;13.49;56.60
967;BME280;56108;48.730;9.304;2023-04-08T09:40:07;98035.50;;;14.64;58.05
967;BME280;56108;48.730;9.304;2023-04-08T09:42:18;98039.06;;;15.53;54.95
967;BME280;56108;48.730;9.304;2023-04-08T09:44:28;98053.56;;;15.61;52.87
967;BME280;56108;48.730;9.304;2023-04-08T09:46:39;98050.25;;;15.58;52.59
967;BME280;56108;48.730;9.304;2023-04-08T09:49:04;98069.59;;;15.07;49.35
967;BME280;56108;48.730;9.304;2023-04-08T09:51:15;98054.03;;;15.55;51.18
967;BME280;56108;48.730;9.304;2023-04-08T09:53:27;98035.75;;;15.49;54.10
967;BME280;56108;48.730;9.304;2023-04-08T09:55:37;98050.13;;;14.71;51.94
967;BME280;56108;48.730;9.304;2023-04-08T09:57:51;98052.56;;;15.62;52.07
967;BME280;56108;48.730;9.304;2023-04-08T10:00:04;98070.41;;;15.96;48.60
967;BME280;56108;48.730;9.304;2023-04-08T10:02:22;98070.81;;;16.33;47.77
967;BME280;56108;48.730;9.304;2023-04-08T10:04:38;98073.19;;;16.47;46.83
967;BME280;56108;48.730;9.304;2023-04-08T10:06:52;98059.41;;;16.61;47.67
967;BME280;56108;48.730;9.304;2023-04-08T10:09:01;98069.25;;;16.51;47.20
967;BME280;56108;48.730;9.304;2023-04-08T10:11:10;98068.78;;;16.04;47.48
967;BME280;56108;48.730;9.304;2023-04-08T10:13:18;98074.56;;;14.55;48.10
967;BME280;56108;48.730;9.304;2023-04-08T10:15:28;98069.97;;;13.87;48.86
967;BME280;56108;48.730;9.304;2023-04-08T10:17:36;98055.19;;;13.22;50.91
967;BME280;56108;48.730;9.304;2023-04-08T10:19:46;98053.34;;;12.61;52.39
967;BME280;56108;48.730;9.304;2023-04-08T10:21:54;98038.41;;;12.58;54.24
967;BME280;56108;48.730;9.304;2023-04-08T10:24:06;98034.03;;;13.06;53.55
967;BME280;56108;48.730;9.304;2023-04-08T10:26:29;98038.88;;;13.01;53.69
967;BME280;56108;48.730;9.304;2023-04-08T10:28:38;98046.41;;;12.71;52.78
967;BME280;56108;48.730;9.304;2023-04-08T10:30:46;98044.03;;;12.15;53.76
967;BME280;56108;48.730;9.304;2023-04-08T10:32:55;98037.56;;;11.80;54.96
967;BME280;56108;48.730;9.304;2023-04-08T10:35:06;98033.88;;;11.82;55.93
967;BME280;56108;48.730;9.304;2023-04-08T10:37:14;98041.84;;;11.01;55.35
967;BME280;56108;48.730;9.304;2023-04-08T10:39:24;98028.50;;;11.15;57.39
967;BME280;56108;48.730;9.304;2023-04-08T10:41:33;98014.50;;;11.12;59.42
967;BME280;56108;48.730;9.304;2023-04-08T10:43:41;98027.38;;;11.05;57.58
967;BME280;56108;48.730;9.304;2023-04-08T10:45:52;98035.00;;;10.97;57.23
967;BME280;56108;48.730;9.304;2023-04-08T10:48:14;98031.16;;;10.60;58.05
967;BME280;56108;48.730;9.304;2023-04-08T10:50:24;98031.47;;;10.11;58.23
967;BME280;56108;48.730;9.304;2023-04-08T10:52:32;98028.50;;;10.01;60.66
967;BME280;56108;48.730;9.304;2023-04-08T10:54:45;98016.56;;;9.94;61.67
967;BME280;56108;48.730;9.304;2023-04-08T10:56:53;98022.19;;;10.04;62.42
967;BME280;56108;48.730;9.304;2023-04-08T10:59:01;98023.34;;;10.28;62.49
967;BME280;56108;48.730;9.304;2023-04-08T11:01:10;98019.56;;;10.32;63.23
967;BME280;56108;48.730;9.304;2023-04-08T11:03:18;98018.22;;;10.54;62.63
967;BME280;56108;48.730;9.304;2023-04-08T11:05:29;98020.59;;;10.87;62.09
967;BME280;56108;48.730;9.304;2023-04-08T11:07:39;98015.72;;;10.79;62.81
967;BME280;56108;48.730;9.304;2023-04-08T11:09:48;98029.81;;;10.81;60.86
967;BME280;56108;48.730;9.304;2023-04-08T11:11:56;98023.72;;;10.79;60.97
967;BME280;56108;48.730;9.304;2023-04-08T11:14:04;98022.19;;;10.89;62.05
967;BME280;56108;48.730;9.304;2023-04-08T11:16:13;98020.94;;;10.95;62.50
967;BME280;56108;48.730;9.304;2023-04-08T11:18:22;98022.16;;;11.04;62.19
967;BME280;56108;48.730;9.304;2023-04-08T11:20:33;98020.03;;;11.09;61.06
967;BME280;56108;48.730;9.304;2023-04-08T11:22:43;98017.34;;;10.82;60.14
967;BME280;56108;48.730;9.304;2023-04-08T11:24:51;98004.63;;;11.14;62.96
967;BME280;56108;48.730;9.304;2023-04-08T11:27:00;98018.69;;;11.70;59.49
967;BME280;56108;48.730;9.304;2023-04-08T11:29:09;98025.88;;;11.55;59.23
967;BME280;56108;48.730;9.304;2023-04-08T11:31:19;98018.56;;;11.71;59.63
967;BME280;56108;48.730;9.304;2023-04-08T11:33:29;98012.56;;;11.28;59.37
967;BME280;56108;48.730;9.304;2023-04-08T11:35:42;98018.28;;;11.49;61.79
967;BME280;56108;48.730;9.304;2023-04-08T11:37:51;98026.50;;;11.59;58.20
967;BME280;56108;48.730;9.304;2023-04-08T11:39:59;98023.00;;;11.58;58.73
967;BME280;56108;48.730;9.304;2023-04-08T11:42:07;98023.22;;;11.55;60.10
967;BME280;56108;48.730;9.304;2023-04-08T11:44:15;98020.00;;;11.23;58.17
967;BME280;56108;48.730;9.304;2023-04-08T11:46:23;98015.78;;;11.33;58.52